createdAt,value
2017-10-24T00:00:12.133Z,26.10
2017-10-24T00:01:12.114Z,26.50
2017-10-24T00:02:12.094Z,27.60
2017-10-24T00:03:12.076Z,24.80
2017-10-24T00:04:12.058Z,25.30
2017-10-24T00:05:12.039Z,26.10
2017-10-24T00:06:12.023Z,25.30
2017-10-24T00:07:12.003Z,25.00
2017-10-24T00:08:11.988Z,25.90
2017-10-24T00:09:11.977Z,26.80
2017-10-24T00:10:11.956Z,25.70
2017-10-24T00:11:11.963Z,25.50
2017-10-24T00:12:11.934Z,27.50
2017-10-24T00:13:11.911Z,27.10
2017-10-24T00:14:11.887Z,28.90
2017-10-24T00:15:11.868Z,27.30
2017-10-24T00:16:11.848Z,26.20
2017-10-24T00:17:11.833Z,27.60
2017-10-24T00:18:11.820Z,27.00
2017-10-24T00:19:11.797Z,26.70
2017-10-24T00:20:11.790Z,25.80
2017-10-24T00:21:11.769Z,26.40
2017-10-24T00:22:11.746Z,27.20
2017-10-24T00:23:11.730Z,27.00
2017-10-24T00:24:11.711Z,27.10
2017-10-24T00:25:11.697Z,27.80
2017-10-24T00:26:11.712Z,27.00
2017-10-24T00:27:11.656Z,28.20
2017-10-24T00:28:11.641Z,26.60
2017-10-24T00:29:11.628Z,26.60
2017-10-24T00:30:11.621Z,28.20
2017-10-24T00:31:11.667Z,26.80
2017-10-24T00:32:11.576Z,27.90
2017-10-24T00:33:11.555Z,27.20
2017-10-24T00:34:11.562Z,26.90
2017-10-24T00:35:11.586Z,26.50
2017-10-24T00:36:11.506Z,28.10
2017-10-24T00:37:11.499Z,27.90
2017-10-24T00:38:11.474Z,28.40
2017-10-24T00:39:11.456Z,27.50
2017-10-24T00:40:11.432Z,27.60
2017-10-24T00:41:11.425Z,29.50
2017-10-24T00:42:11.420Z,28.80
2017-10-24T00:43:11.393Z,29.10
2017-10-24T00:44:11.371Z,29.40
2017-10-24T00:45:11.351Z,29.00
2017-10-24T00:46:11.338Z,29.20
2017-10-24T00:47:11.321Z,30.80
2017-10-24T00:48:11.305Z,29.60
2017-10-24T00:49:11.286Z,29.40
2017-10-24T00:50:11.289Z,29.30
2017-10-24T00:51:11.253Z,29.60
2017-10-24T00:52:11.236Z,29.90
2017-10-24T00:53:11.217Z,29.30
2017-10-24T00:54:11.205Z,29.70
2017-10-24T00:55:11.189Z,31.40
2017-10-24T00:56:11.195Z,28.50
2017-10-24T00:57:11.152Z,30.10
2017-10-24T00:58:11.133Z,30.10
2017-10-24T00:59:11.129Z,30.40
2017-10-24T01:00:11.100Z,29.20
2017-10-24T01:01:11.078Z,30.30
2017-10-24T01:02:11.067Z,29.30
2017-10-24T01:03:11.054Z,30.40
2017-10-24T01:04:11.032Z,29.70
2017-10-24T01:05:11.018Z,29.60
2017-10-24T01:06:10.998Z,30.90
2017-10-24T01:07:10.980Z,30.30
2017-10-24T01:08:10.965Z,30.90
2017-10-24T01:09:10.963Z,30.40
2017-10-24T01:10:10.925Z,30.30
2017-10-24T01:11:10.918Z,29.40
2017-10-24T01:12:10.896Z,30.30
2017-10-24T01:13:10.883Z,29.20
2017-10-24T01:14:10.862Z,30.10
2017-10-24T01:15:10.851Z,29.90
2017-10-24T01:16:10.829Z,30.20
2017-10-24T01:17:10.815Z,29.90
2017-10-24T01:18:10.798Z,29.00
2017-10-24T01:19:10.776Z,30.90
2017-10-24T01:20:10.768Z,30.40
2017-10-24T01:21:10.744Z,29.40
2017-10-24T01:22:10.726Z,30.80
2017-10-24T01:23:10.705Z,30.10
2017-10-24T01:24:10.695Z,28.70
2017-10-24T01:25:10.682Z,29.70
2017-10-24T01:26:13.760Z,30.00
2017-10-24T01:27:10.641Z,29.40
2017-10-24T01:28:10.628Z,29.50
2017-10-24T01:29:10.626Z,29.00
2017-10-24T01:30:10.593Z,28.50
2017-10-24T01:31:10.575Z,29.50
2017-10-24T01:32:10.552Z,28.80
2017-10-24T01:33:10.545Z,28.80
2017-10-24T01:34:10.529Z,29.70
2017-10-24T01:35:10.513Z,27.80
2017-10-24T01:36:10.485Z,29.50
2017-10-24T01:37:10.480Z,27.80
2017-10-24T01:38:10.457Z,29.20
2017-10-24T01:39:10.445Z,28.80
2017-10-24T01:40:10.424Z,30.50
2017-10-24T01:41:10.403Z,29.20
2017-10-24T01:42:10.388Z,28.40
2017-10-24T01:43:10.371Z,27.50
2017-10-24T01:44:10.357Z,28.70
2017-10-24T01:45:10.338Z,28.70
2017-10-24T01:46:10.322Z,28.80
2017-10-24T01:47:10.306Z,28.90
2017-10-24T01:48:10.288Z,28.50
2017-10-24T01:49:10.270Z,27.10
2017-10-24T01:50:10.257Z,27.20
2017-10-24T01:51:10.245Z,27.30
2017-10-24T01:52:10.230Z,26.90
2017-10-24T01:53:10.204Z,27.90
2017-10-24T01:54:10.187Z,26.60
2017-10-24T01:55:10.180Z,28.40
2017-10-24T01:56:10.294Z,26.60
2017-10-24T01:57:10.147Z,27.40
2017-10-24T01:58:10.118Z,27.40
2017-10-24T01:59:10.097Z,27.10
2017-10-24T02:00:10.228Z,26.60
2017-10-24T02:01:10.072Z,28.20
2017-10-24T02:02:10.052Z,29.40
2017-10-24T02:03:10.040Z,28.60
2017-10-24T02:04:10.039Z,27.90
2017-10-24T02:05:10.004Z,27.20
2017-10-24T02:06:09.983Z,28.10
2017-10-24T02:07:09.967Z,27.30
2017-10-24T02:08:09.962Z,27.80
2017-10-24T02:09:09.937Z,27.50
2017-10-24T02:10:09.919Z,27.20
2017-10-24T02:11:09.895Z,29.90
2017-10-24T02:12:09.886Z,28.80
2017-10-24T02:13:09.869Z,29.50
2017-10-24T02:14:09.854Z,28.90
2017-10-24T02:15:09.834Z,31.20
2017-10-24T02:16:09.817Z,30.00
2017-10-24T02:17:09.808Z,31.20
2017-10-24T02:18:09.787Z,31.40
2017-10-24T02:19:09.769Z,30.20
2017-10-24T02:20:09.753Z,30.70
2017-10-24T02:21:09.735Z,32.20
2017-10-24T02:22:09.720Z,33.50
2017-10-24T02:23:09.705Z,32.90
2017-10-24T02:24:09.687Z,33.30
2017-10-24T02:25:09.668Z,32.40
2017-10-24T02:26:09.759Z,33.10
2017-10-24T02:27:09.633Z,34.30
2017-10-24T02:28:09.616Z,34.40
2017-10-24T02:29:09.604Z,35.50
2017-10-24T02:30:09.604Z,35.40
2017-10-24T02:31:09.571Z,32.90
2017-10-24T02:32:09.543Z,34.10
2017-10-24T02:33:09.557Z,34.30
2017-10-24T02:34:09.527Z,33.70
2017-10-24T02:35:09.506Z,32.80
2017-10-24T02:36:09.489Z,35.40
2017-10-24T02:37:09.470Z,34.50
2017-10-24T02:38:09.455Z,33.90
2017-10-24T02:39:09.437Z,35.50
2017-10-24T02:40:09.424Z,32.60
2017-10-24T02:41:09.403Z,35.80
2017-10-24T02:42:09.414Z,35.50
2017-10-24T02:43:09.374Z,34.80
2017-10-24T02:44:09.353Z,35.40
2017-10-24T02:45:09.337Z,33.10
2017-10-24T02:46:09.320Z,32.90
2017-10-24T02:47:09.305Z,33.70
2017-10-24T02:48:09.285Z,34.20
2017-10-24T02:49:09.271Z,34.30
2017-10-24T02:50:09.255Z,34.60
2017-10-24T02:51:09.250Z,33.70
2017-10-24T02:52:09.220Z,33.20
2017-10-24T02:53:09.205Z,34.00
2017-10-24T02:54:09.189Z,34.20
2017-10-24T02:55:09.169Z,35.50
2017-10-24T02:56:09.245Z,33.90
2017-10-24T02:57:09.136Z,34.20
2017-10-24T02:58:09.123Z,35.70
2017-10-24T02:59:09.100Z,36.60
2017-10-24T03:00:09.087Z,35.40
2017-10-24T03:01:09.070Z,34.20
2017-10-24T03:02:09.051Z,33.80
2017-10-24T03:03:09.037Z,35.20
2017-10-24T03:04:09.029Z,35.00
2017-10-24T03:05:09.007Z,32.20
2017-10-24T03:06:08.989Z,34.70
2017-10-24T03:07:08.971Z,33.70
2017-10-24T03:08:08.954Z,35.20
2017-10-24T03:09:08.936Z,34.40
2017-10-24T03:10:08.916Z,36.20
2017-10-24T03:11:08.904Z,34.90
2017-10-24T03:12:08.886Z,33.70
2017-10-24T03:13:08.870Z,36.00
2017-10-24T03:14:08.853Z,35.80
2017-10-24T03:15:08.837Z,35.80
2017-10-24T03:16:08.819Z,36.00
2017-10-24T03:17:08.815Z,35.50
2017-10-24T03:18:08.795Z,35.80
2017-10-24T03:19:08.771Z,36.40
2017-10-24T03:20:08.756Z,36.40
2017-10-24T03:21:08.736Z,34.90
2017-10-24T03:22:08.720Z,35.40
2017-10-24T03:23:08.703Z,36.40
2017-10-24T03:24:08.686Z,35.80
2017-10-24T03:25:08.670Z,35.90
2017-10-24T03:26:08.733Z,33.90
2017-10-24T03:27:08.636Z,37.10
2017-10-24T03:28:08.620Z,36.20
2017-10-24T03:29:08.603Z,37.10
2017-10-24T03:30:08.589Z,36.90
2017-10-24T03:31:08.579Z,36.00
2017-10-24T03:32:08.558Z,36.90
2017-10-24T03:33:08.534Z,36.40
2017-10-24T03:34:08.520Z,34.60
2017-10-24T03:35:08.504Z,36.30
2017-10-24T03:36:08.494Z,34.20
2017-10-24T03:37:08.474Z,36.10
2017-10-24T03:38:08.453Z,38.60
2017-10-24T03:39:08.437Z,37.00
2017-10-24T03:40:08.421Z,34.30
2017-10-24T03:41:08.411Z,34.80
2017-10-24T03:42:08.387Z,39.80
2017-10-24T03:43:08.372Z,38.20
2017-10-24T03:44:08.355Z,37.50
2017-10-24T03:45:08.378Z,35.90
2017-10-24T03:46:08.338Z,40.90
2017-10-24T03:47:08.301Z,42.00
2017-10-24T03:48:08.288Z,51.00
2017-10-24T03:49:08.428Z,38.40
2017-10-24T03:50:08.255Z,43.00
2017-10-24T03:51:08.238Z,37.90
2017-10-24T03:52:08.220Z,39.40
2017-10-24T03:53:08.224Z,38.90
2017-10-24T03:54:08.193Z,41.10
2017-10-24T03:55:08.172Z,35.70
2017-10-24T03:56:08.154Z,34.40
2017-10-24T03:57:08.139Z,33.30
2017-10-24T03:58:08.119Z,35.70
2017-10-24T03:59:08.100Z,34.20
2017-10-24T04:00:08.085Z,36.80
2017-10-24T04:01:08.071Z,32.60
2017-10-24T04:02:08.052Z,33.30
2017-10-24T04:03:08.038Z,35.00
2017-10-24T04:04:08.020Z,31.60
2017-10-24T04:05:08.004Z,33.00
2017-10-24T04:06:07.989Z,32.10
2017-10-24T04:07:08.016Z,30.80
2017-10-24T04:08:07.962Z,31.50
2017-10-24T04:09:08.053Z,32.40
2017-10-24T04:10:07.927Z,39.00
2017-10-24T04:11:07.913Z,36.80
2017-10-24T04:12:07.897Z,32.90
2017-10-24T04:13:07.870Z,31.00
2017-10-24T04:14:07.857Z,31.30
2017-10-24T04:15:07.839Z,32.40
2017-10-24T04:16:07.822Z,30.90
2017-10-24T04:17:07.811Z,31.90
2017-10-24T04:18:07.789Z,29.10
2017-10-24T04:19:07.776Z,31.20
2017-10-24T04:20:07.760Z,30.00
2017-10-24T04:21:07.794Z,30.00
2017-10-24T04:22:07.723Z,31.80
2017-10-24T04:23:07.709Z,30.10
2017-10-24T04:24:07.689Z,29.10
2017-10-24T04:25:07.673Z,30.10
2017-10-24T04:26:07.703Z,29.50
2017-10-24T04:27:07.641Z,29.70
2017-10-24T04:28:07.618Z,30.00
2017-10-24T04:29:07.626Z,28.60
2017-10-24T04:30:07.604Z,29.60
2017-10-24T04:31:07.587Z,29.20
2017-10-24T04:32:07.611Z,30.00
2017-10-24T04:33:07.546Z,29.00
2017-10-24T04:34:07.523Z,29.70
2017-10-24T04:35:07.513Z,28.80
2017-10-24T04:36:07.491Z,28.70
2017-10-24T04:37:07.478Z,31.00
2017-10-24T04:38:07.458Z,29.90
2017-10-24T04:39:07.450Z,30.40
2017-10-24T04:40:07.427Z,29.40
2017-10-24T04:41:07.410Z,30.10
2017-10-24T04:42:07.391Z,28.90
2017-10-24T04:43:07.376Z,28.40
2017-10-24T04:44:07.370Z,28.60
2017-10-24T04:45:07.350Z,28.00
2017-10-24T04:46:07.324Z,27.50
2017-10-24T04:47:07.309Z,26.90
2017-10-24T04:48:07.292Z,28.70
2017-10-24T04:49:07.274Z,27.50
2017-10-24T04:50:07.260Z,27.70
2017-10-24T04:51:07.240Z,27.30
2017-10-24T04:52:07.240Z,26.40
2017-10-24T04:53:07.226Z,26.80
2017-10-24T04:54:07.196Z,25.90
2017-10-24T04:55:07.182Z,25.30
2017-10-24T04:56:07.200Z,25.80
2017-10-24T04:57:07.163Z,25.50
2017-10-24T04:58:07.173Z,25.40
2017-10-24T04:59:07.134Z,25.10
2017-10-24T05:00:07.119Z,25.00
2017-10-24T05:01:07.091Z,25.70
2017-10-24T05:02:07.086Z,25.60
2017-10-24T05:03:07.046Z,24.70
2017-10-24T05:04:07.038Z,25.60
2017-10-24T05:05:07.012Z,26.30
2017-10-24T05:06:07.014Z,24.90
2017-10-24T05:07:06.993Z,26.90
2017-10-24T05:08:06.997Z,24.90
2017-10-24T05:09:06.943Z,25.20
2017-10-24T05:10:06.947Z,26.90
2017-10-24T05:11:06.925Z,26.60
2017-10-24T05:12:06.898Z,26.60
2017-10-24T05:13:06.893Z,26.10
2017-10-24T05:14:06.901Z,25.10
2017-10-24T05:15:06.876Z,25.80
2017-10-24T05:16:06.851Z,26.70
2017-10-24T05:17:06.815Z,26.70
2017-10-24T05:18:06.868Z,27.90
2017-10-24T05:19:06.809Z,27.10
2017-10-24T05:20:06.764Z,28.50
2017-10-24T05:21:06.758Z,26.00
2017-10-24T05:22:06.733Z,28.70
2017-10-24T05:23:06.758Z,28.70
2017-10-24T05:24:06.701Z,27.00
2017-10-24T05:25:06.695Z,28.70
2017-10-24T05:26:06.679Z,27.70
2017-10-24T05:27:06.665Z,28.30
2017-10-24T05:28:06.657Z,28.20
2017-10-24T05:29:06.658Z,28.50
2017-10-24T05:30:06.685Z,29.50
2017-10-24T05:31:06.588Z,29.00
2017-10-24T05:32:06.599Z,28.60
2017-10-24T05:33:06.570Z,29.40
2017-10-24T05:34:06.525Z,27.30
2017-10-24T05:35:06.515Z,24.80
2017-10-24T05:36:06.530Z,25.10
2017-10-24T05:37:06.483Z,24.70
2017-10-24T05:38:06.466Z,24.80
2017-10-24T05:39:06.449Z,25.20
2017-10-24T05:40:06.432Z,24.00
2017-10-24T05:41:06.445Z,24.60
2017-10-24T05:42:06.414Z,23.70
2017-10-24T05:43:06.388Z,24.70
2017-10-24T05:44:06.372Z,25.50
2017-10-24T05:45:06.349Z,23.80
2017-10-24T05:46:06.368Z,24.40
2017-10-24T05:47:06.314Z,25.70
2017-10-24T05:48:06.333Z,26.70
2017-10-24T05:49:06.333Z,24.70
2017-10-24T05:50:06.281Z,26.30
2017-10-24T05:51:06.251Z,24.20
2017-10-24T05:52:06.236Z,23.50
2017-10-24T05:53:06.237Z,22.70
2017-10-24T05:54:06.213Z,25.70
2017-10-24T05:55:06.211Z,23.90
2017-10-24T05:56:06.278Z,24.40
2017-10-24T05:57:06.147Z,22.80
2017-10-24T05:58:06.223Z,25.70
2017-10-24T05:59:06.128Z,25.10
2017-10-24T06:00:06.102Z,23.30
2017-10-24T06:01:06.135Z,22.60
2017-10-24T06:02:06.066Z,23.80
2017-10-24T06:03:06.061Z,22.90
2017-10-24T06:04:06.038Z,22.30
2017-10-24T06:05:06.025Z,22.60
2017-10-24T06:06:06.020Z,21.60
2017-10-24T06:07:06.005Z,22.20
2017-10-24T06:08:05.971Z,22.50
2017-10-24T06:09:05.957Z,21.70
2017-10-24T06:10:05.939Z,20.80
2017-10-24T06:11:05.939Z,21.70
2017-10-24T06:12:05.914Z,19.70
2017-10-24T06:13:05.881Z,20.90
2017-10-24T06:14:05.869Z,19.80
2017-10-24T06:15:05.862Z,20.70
2017-10-24T06:16:05.860Z,20.70
2017-10-24T06:17:05.823Z,20.60
2017-10-24T06:18:05.818Z,19.70
2017-10-24T06:19:05.805Z,19.00
2017-10-24T06:20:05.769Z,18.40
2017-10-24T06:21:05.760Z,18.40
2017-10-24T06:22:05.752Z,19.50
2017-10-24T06:23:05.717Z,19.50
2017-10-24T06:24:05.718Z,20.90
2017-10-24T06:25:05.697Z,20.40
2017-10-24T06:26:05.754Z,19.30
2017-10-24T06:27:05.695Z,19.50
2017-10-24T06:28:05.647Z,18.40
2017-10-24T06:29:05.646Z,17.70
2017-10-24T06:30:05.640Z,17.80
2017-10-24T06:31:05.606Z,17.20
2017-10-24T06:32:05.585Z,16.90
2017-10-24T06:33:05.593Z,17.20
2017-10-24T06:34:05.555Z,19.90
2017-10-24T06:35:05.588Z,16.50
2017-10-24T06:36:05.523Z,17.70
2017-10-24T06:37:05.500Z,17.20
2017-10-24T06:38:05.486Z,16.00
2017-10-24T06:39:05.521Z,17.20
2017-10-24T06:40:05.442Z,15.60
2017-10-24T06:41:05.476Z,17.80
2017-10-24T06:42:05.421Z,17.20
2017-10-24T06:43:05.438Z,16.80
2017-10-24T06:44:05.376Z,15.10
2017-10-24T06:45:05.363Z,15.20
2017-10-24T06:46:05.346Z,16.30
2017-10-24T06:47:05.351Z,15.50
2017-10-24T06:48:05.315Z,15.60
2017-10-24T06:49:05.316Z,15.80
2017-10-24T06:50:05.296Z,14.60
2017-10-24T06:51:05.388Z,14.50
2017-10-24T06:52:05.265Z,14.80
2017-10-24T06:53:05.232Z,15.30
2017-10-24T06:54:05.214Z,16.00
2017-10-24T06:55:05.203Z,16.10
2017-10-24T06:56:05.183Z,16.00
2017-10-24T06:57:05.205Z,16.20
2017-10-24T06:58:05.160Z,17.20
2017-10-24T06:59:05.145Z,15.80
2017-10-24T07:00:05.130Z,15.50
2017-10-24T07:01:05.173Z,14.70
2017-10-24T07:02:05.097Z,15.70
2017-10-24T07:03:05.067Z,15.60
2017-10-24T07:04:05.056Z,15.30
2017-10-24T07:05:05.036Z,16.10
2017-10-24T07:06:05.023Z,16.10
2017-10-24T07:07:05.003Z,15.90
2017-10-24T07:08:05.029Z,14.80
2017-10-24T07:09:04.986Z,15.70
2017-10-24T07:10:04.956Z,16.10
2017-10-24T07:11:04.950Z,17.10
2017-10-24T07:12:04.925Z,17.20
2017-10-24T07:13:04.932Z,17.90
2017-10-24T07:14:05.881Z,18.00
2017-10-24T07:15:04.909Z,17.10
2017-10-24T07:16:04.869Z,17.10
2017-10-24T07:17:04.850Z,16.60
2017-10-24T07:18:05.427Z,16.10
2017-10-24T07:19:04.820Z,17.20
2017-10-24T07:20:05.481Z,15.30
2017-10-24T07:21:04.788Z,16.70
2017-10-24T07:22:04.773Z,16.40
2017-10-24T07:23:04.789Z,16.50
2017-10-24T07:24:04.731Z,15.90
2017-10-24T07:25:04.749Z,15.70
2017-10-24T07:26:04.721Z,17.30
2017-10-24T07:27:04.685Z,18.00
2017-10-24T07:28:04.704Z,17.70
2017-10-24T07:29:04.698Z,17.80
2017-10-24T07:30:04.633Z,16.50
2017-10-24T07:31:04.634Z,16.20
2017-10-24T07:32:04.630Z,17.00
2017-10-24T07:33:04.625Z,15.90
2017-10-24T07:34:04.554Z,17.30
2017-10-24T07:35:05.526Z,17.10
2017-10-24T07:36:04.552Z,16.60
2017-10-24T07:37:04.563Z,18.00
2017-10-24T07:38:04.502Z,17.50
2017-10-24T07:39:04.490Z,15.80
2017-10-24T07:40:04.483Z,16.80
2017-10-24T07:41:04.459Z,17.80
2017-10-24T07:42:04.464Z,17.10
2017-10-24T07:43:04.407Z,17.40
2017-10-24T07:44:04.410Z,17.10
2017-10-24T07:45:04.403Z,16.50
2017-10-24T07:46:04.403Z,17.20
2017-10-24T07:47:04.497Z,16.90
2017-10-24T07:48:04.370Z,19.00
2017-10-24T07:49:04.333Z,18.90
2017-10-24T07:50:04.330Z,18.10
2017-10-24T07:51:04.282Z,19.20
2017-10-24T07:52:04.335Z,17.70
2017-10-24T07:53:04.464Z,17.00
2017-10-24T07:54:04.265Z,15.40
2017-10-24T07:55:04.228Z,15.50
2017-10-24T07:56:04.286Z,16.00
2017-10-24T07:57:04.204Z,15.90
2017-10-24T07:58:04.199Z,15.90
2017-10-24T07:59:04.218Z,16.00
2017-10-24T08:00:04.230Z,16.60
2017-10-24T08:01:04.135Z,15.20
2017-10-24T08:02:04.163Z,17.00
2017-10-24T08:03:04.160Z,16.50
2017-10-24T08:04:04.101Z,16.70
2017-10-24T08:05:04.061Z,15.50
2017-10-24T08:06:04.088Z,17.90
2017-10-24T08:07:04.042Z,15.00
2017-10-24T08:08:04.006Z,16.20
2017-10-24T08:09:03.993Z,15.80
2017-10-24T08:10:03.972Z,15.90
2017-10-24T08:11:04.006Z,17.40
2017-10-24T08:12:03.959Z,15.30
2017-10-24T08:13:03.936Z,15.20
2017-10-24T08:14:03.905Z,14.60
2017-10-24T08:15:03.897Z,15.40
2017-10-24T08:16:03.910Z,15.60
2017-10-24T08:17:03.872Z,16.40
2017-10-24T08:18:03.832Z,15.70
2017-10-24T08:19:03.840Z,15.40
2017-10-24T08:20:03.872Z,14.50
2017-10-24T08:21:03.817Z,14.70
2017-10-24T08:22:03.788Z,14.50
2017-10-24T08:23:03.776Z,14.40
2017-10-24T08:24:03.800Z,16.10
2017-10-24T08:25:03.718Z,17.10
2017-10-24T08:26:03.712Z,16.70
2017-10-24T08:27:03.710Z,16.20
2017-10-24T08:28:03.737Z,16.40
2017-10-24T08:29:03.690Z,16.90
2017-10-24T08:30:03.698Z,16.70
2017-10-24T08:31:03.633Z,16.80
2017-10-24T08:32:03.634Z,15.50
2017-10-24T08:33:03.603Z,16.60
2017-10-24T08:34:03.609Z,16.40
2017-10-24T08:35:03.627Z,17.90
2017-10-24T08:36:03.562Z,17.80
2017-10-24T08:37:03.597Z,17.80
2017-10-24T08:38:03.575Z,18.80
2017-10-24T08:39:03.492Z,18.30
2017-10-24T08:40:03.503Z,18.20
2017-10-24T08:41:03.456Z,17.20
2017-10-24T08:42:03.481Z,19.50
2017-10-24T08:43:03.448Z,17.60
2017-10-24T08:44:03.425Z,18.60
2017-10-24T08:45:03.399Z,19.20
2017-10-24T08:46:03.394Z,18.40
2017-10-24T08:47:03.363Z,17.90
2017-10-24T08:48:03.361Z,19.90
2017-10-24T08:49:03.354Z,19.10
2017-10-24T08:50:03.391Z,18.50
2017-10-24T08:51:03.311Z,17.50
2017-10-24T08:52:03.274Z,16.50
2017-10-24T08:53:03.292Z,17.40
2017-10-24T08:54:03.274Z,17.40
2017-10-24T08:55:03.307Z,17.00
2017-10-24T08:56:03.244Z,16.40
2017-10-24T08:57:03.230Z,17.50
2017-10-24T08:58:03.225Z,17.50
2017-10-24T08:59:03.207Z,18.00
2017-10-24T09:00:03.219Z,17.80
2017-10-24T09:01:03.202Z,18.70
2017-10-24T09:02:03.147Z,17.20
2017-10-24T09:03:03.113Z,18.70
2017-10-24T09:04:03.103Z,18.10
2017-10-24T09:05:03.124Z,19.00
2017-10-24T09:06:03.078Z,21.00
2017-10-24T09:07:03.056Z,19.80
2017-10-24T09:08:03.076Z,18.80
2017-10-24T09:09:03.072Z,19.70
2017-10-24T09:10:02.993Z,19.40
2017-10-24T09:11:03.005Z,19.20
2017-10-24T09:12:03.005Z,18.90
2017-10-24T09:13:02.962Z,19.20
2017-10-24T09:14:03.960Z,19.20
2017-10-24T09:15:03.055Z,19.60
2017-10-24T09:16:03.950Z,19.80
2017-10-24T09:17:03.933Z,19.70
2017-10-24T09:18:02.972Z,19.80
2017-10-24T09:19:02.963Z,19.90
2017-10-24T09:20:02.950Z,22.30
2017-10-24T09:21:02.889Z,21.80
2017-10-24T09:22:02.880Z,21.70
2017-10-24T09:23:02.803Z,20.10
2017-10-24T09:24:02.896Z,20.70
2017-10-24T09:25:02.811Z,20.70
2017-10-24T09:26:02.747Z,21.90
2017-10-24T09:27:02.759Z,21.80
2017-10-24T09:28:02.943Z,20.60
2017-10-24T09:29:03.464Z,22.00
2017-10-24T09:30:02.703Z,20.40
2017-10-24T09:31:02.723Z,21.40
2017-10-24T09:32:02.692Z,21.10
2017-10-24T09:33:02.673Z,20.20
2017-10-24T09:34:02.697Z,20.80
2017-10-24T09:35:02.700Z,21.60
2017-10-24T09:36:02.672Z,23.10
2017-10-24T09:37:02.669Z,27.20
2017-10-24T09:38:02.638Z,26.40
2017-10-24T09:39:02.639Z,26.50
2017-10-24T09:40:02.579Z,19.90
2017-10-24T09:41:02.605Z,20.80
2017-10-24T09:42:02.584Z,19.50
2017-10-24T09:43:02.570Z,22.40
2017-10-24T09:44:02.652Z,20.90
2017-10-24T09:45:02.498Z,19.50
2017-10-24T09:46:02.428Z,20.50
2017-10-24T09:47:02.489Z,23.00
2017-10-24T09:48:02.604Z,19.10
2017-10-24T09:49:02.466Z,18.00
2017-10-24T09:50:04.140Z,18.50
2017-10-24T09:51:02.477Z,18.60
2017-10-24T09:52:02.363Z,19.30
2017-10-24T09:53:02.387Z,22.10
2017-10-24T09:54:02.353Z,22.00
2017-10-24T09:55:02.289Z,19.50
2017-10-24T09:56:02.409Z,19.10
2017-10-24T09:57:02.366Z,19.80
2017-10-24T09:58:02.311Z,19.40
2017-10-24T09:59:02.337Z,18.90
2017-10-24T10:00:02.272Z,20.10
2017-10-24T10:01:02.318Z,20.60
2017-10-24T10:02:02.238Z,19.70
2017-10-24T10:03:02.271Z,19.50
2017-10-24T10:04:02.176Z,20.80
2017-10-24T10:05:02.180Z,20.40
2017-10-24T10:06:02.268Z,21.30
2017-10-24T10:07:02.166Z,21.40
2017-10-24T10:08:02.152Z,20.70
2017-10-24T10:09:02.170Z,21.10
2017-10-24T10:10:02.151Z,21.20
2017-10-24T10:11:02.092Z,20.20
2017-10-24T10:12:02.065Z,20.60
2017-10-24T10:13:02.068Z,20.50
2017-10-24T10:14:02.047Z,20.80
2017-10-24T10:15:02.033Z,22.10
2017-10-24T10:16:02.021Z,21.20
2017-10-24T10:17:01.988Z,20.30
2017-10-24T10:18:02.010Z,19.80
2017-10-24T10:19:02.019Z,19.30
2017-10-24T10:20:01.919Z,20.20
2017-10-24T10:21:01.974Z,19.70
2017-10-24T10:22:02.034Z,20.40
2017-10-24T10:23:01.922Z,20.40
2017-10-24T10:24:01.946Z,21.10
2017-10-24T10:25:01.842Z,20.20
2017-10-24T10:26:01.829Z,20.20
2017-10-24T10:27:01.825Z,20.70
2017-10-24T10:28:01.997Z,19.60
2017-10-24T10:29:01.838Z,20.10
2017-10-24T10:30:01.752Z,20.30
2017-10-24T10:31:01.839Z,19.90
2017-10-24T10:32:01.822Z,19.20
2017-10-24T10:33:01.769Z,18.70
2017-10-24T10:34:01.700Z,18.20
2017-10-24T10:35:01.744Z,18.90
2017-10-24T10:36:01.739Z,18.80
2017-10-24T10:37:01.736Z,19.10
2017-10-24T10:38:01.772Z,19.00
2017-10-24T10:39:01.664Z,18.60
2017-10-24T10:40:01.676Z,18.40
2017-10-24T10:41:01.671Z,19.20
2017-10-24T10:42:01.649Z,20.40
2017-10-24T10:43:01.651Z,22.80
2017-10-24T10:44:02.478Z,23.30
2017-10-24T10:45:03.068Z,19.70
2017-10-24T10:46:01.597Z,23.10
2017-10-24T10:47:01.476Z,25.90
2017-10-24T10:48:01.592Z,20.70
2017-10-24T10:49:01.548Z,16.10
2017-10-24T10:50:01.547Z,19.60
2017-10-24T10:51:01.460Z,23.10
2017-10-24T10:52:01.405Z,20.60
2017-10-24T10:53:01.421Z,17.50
2017-10-24T10:54:01.969Z,18.30
2017-10-24T10:55:01.437Z,16.80
2017-10-24T10:56:01.487Z,16.30
2017-10-24T10:57:01.459Z,15.00
2017-10-24T10:58:01.998Z,16.90
2017-10-24T10:59:01.391Z,16.10
2017-10-24T11:00:01.447Z,16.20
2017-10-24T11:01:01.396Z,16.10
2017-10-24T11:02:01.403Z,15.00
2017-10-24T11:03:01.312Z,14.60
2017-10-24T11:04:01.335Z,16.70
2017-10-24T11:05:01.293Z,17.20
2017-10-24T11:06:01.339Z,16.10
2017-10-24T11:07:01.250Z,13.70
2017-10-24T11:08:01.252Z,15.60
2017-10-24T11:09:01.244Z,14.80
2017-10-24T11:10:01.230Z,15.30
2017-10-24T11:11:01.147Z,15.60
2017-10-24T11:12:01.179Z,15.70
2017-10-24T11:13:01.180Z,16.20
2017-10-24T11:14:01.971Z,15.00
2017-10-24T11:15:01.129Z,14.30
2017-10-24T11:16:01.963Z,14.90
2017-10-24T11:17:01.079Z,14.10
2017-10-24T11:18:01.048Z,13.90
2017-10-24T11:19:01.006Z,16.40
2017-10-24T11:20:01.218Z,25.50
2017-10-24T11:21:01.155Z,17.70
2017-10-24T11:22:01.978Z,29.80
2017-10-24T11:23:00.990Z,22.20
2017-10-24T11:24:01.983Z,13.50
2017-10-24T11:25:01.001Z,13.30
2017-10-24T11:26:01.089Z,13.10
2017-10-24T11:27:01.544Z,12.10
2017-10-24T11:28:00.903Z,13.00
2017-10-24T11:29:00.917Z,12.90
2017-10-24T11:30:01.148Z,12.90
2017-10-24T11:31:00.865Z,12.30
2017-10-24T11:32:01.287Z,12.20
2017-10-24T11:33:00.794Z,11.60
2017-10-24T11:34:00.905Z,13.30
2017-10-24T11:35:01.031Z,16.70
2017-10-24T11:36:01.056Z,30.80
2017-10-24T11:37:01.201Z,38.30
2017-10-24T11:38:01.008Z,28.00
2017-10-24T11:39:01.101Z,30.10
2017-10-24T11:40:00.772Z,17.60
2017-10-24T11:41:01.493Z,15.30
2017-10-24T11:42:01.032Z,13.10
2017-10-24T11:43:01.160Z,13.70
2017-10-24T11:44:01.588Z,12.00
2017-10-24T11:45:01.473Z,11.30
2017-10-24T11:46:00.637Z,11.00
2017-10-24T11:47:00.638Z,10.60
2017-10-24T11:48:00.584Z,10.40
2017-10-24T11:49:00.599Z,10.10
2017-10-24T11:50:00.545Z,11.40
2017-10-24T11:53:00.617Z,17.50
2017-10-24T11:54:01.514Z,19.90
2017-10-24T11:55:00.597Z,10.90
2017-10-24T11:56:00.505Z,10.50
2017-10-24T11:57:00.541Z,10.40
2017-10-24T11:58:00.472Z,13.30
2017-10-24T11:59:21.557Z,10.50
2017-10-24T12:00:00.669Z,13.00
2017-10-24T12:01:00.598Z,14.30
2017-10-24T12:02:00.464Z,19.40
2017-10-24T12:03:00.516Z,15.00
2017-10-24T12:04:00.533Z,11.70
2017-10-24T12:05:21.429Z,12.70
2017-10-24T12:06:00.390Z,11.50
2017-10-24T12:07:00.471Z,10.70
2017-10-24T12:08:00.518Z,9.60
2017-10-24T12:09:00.368Z,9.70
2017-10-24T12:10:00.429Z,8.80
2017-10-24T12:11:22.037Z,8.20
2017-10-24T12:12:00.394Z,9.30
2017-10-24T12:13:00.390Z,10.50
2017-10-24T12:14:01.031Z,11.90
2017-10-24T12:15:00.652Z,9.10
2017-10-24T12:16:01.037Z,7.60
2017-10-24T12:17:21.336Z,8.40
2017-10-24T12:18:00.277Z,9.10
2017-10-24T12:19:00.295Z,8.20
2017-10-24T12:20:00.344Z,7.70
2017-10-24T12:21:01.045Z,8.20
2017-10-24T12:22:01.117Z,7.80
2017-10-24T12:23:21.178Z,7.00
2017-10-24T12:24:00.194Z,7.80
2017-10-24T12:25:00.285Z,5.90
2017-10-24T12:26:00.113Z,6.20
2017-10-24T12:27:00.281Z,6.50
2017-10-24T12:28:00.034Z,8.70
2017-10-24T12:29:21.108Z,6.00
2017-10-24T12:30:00.157Z,8.50
2017-10-24T12:31:01.374Z,7.50
2017-10-24T12:32:00.088Z,7.20
2017-10-24T12:33:00.123Z,6.70
2017-10-24T12:34:00.067Z,7.00
2017-10-24T12:35:21.597Z,7.50
2017-10-24T12:35:59.997Z,7.90
2017-10-24T12:36:59.955Z,12.70
2017-10-24T12:38:00.033Z,11.40
2017-10-24T12:38:59.943Z,10.40
2017-10-24T12:39:59.859Z,11.60
2017-10-24T12:41:20.835Z,8.30
2017-10-24T12:41:59.874Z,7.30
2017-10-24T12:42:59.867Z,7.60
2017-10-24T12:43:59.813Z,8.70
2017-10-24T12:44:59.842Z,8.20
2017-10-24T12:45:59.802Z,11.10
2017-10-24T12:47:20.844Z,9.30
2017-10-24T12:47:59.859Z,7.80
2017-10-24T12:48:59.834Z,7.30
2017-10-24T12:49:59.755Z,7.50
2017-10-24T12:50:59.778Z,6.80
2017-10-24T12:51:59.824Z,7.10
2017-10-24T12:53:21.550Z,8.20
2017-10-24T12:54:00.553Z,8.50
2017-10-24T12:55:00.649Z,16.80